Time;durP1;ratioP1;P1;durP2;ratioP2;P2;SDS_P1;SDS_P2;PMS_P1;PMS_P2;Temp;Humidity;BMP_temperature;BMP_pressure;BME280_temperature;BME280_humidity;BME280_pressure;Samples;Min_cycle;Max_cycle;Signal;HPM_P1;HPM_P2
2022/12/03 00:00:57;;;;;;;3.88;2.63;;;;;;;;;;5048380;28;20768;-73
2022/12/03 00:03:23;;;;;;;5.57;2.83;;;;;;;;;;5054194;28;20564;-73
2022/12/03 00:05:49;;;;;;;3.35;2.47;;;;;;;;;;5052817;28;20142;-73
2022/12/03 00:08:15;;;;;;;3.65;2.90;;;;;;;;;;5058414;28;20029;-73
2022/12/03 00:10:41;;;;;;;4.25;2.97;;;;;;;;;;5059245;28;20028;-73
2022/12/03 00:13:08;;;;;;;6.15;2.90;;;;;;;;;;5054831;28;20467;-73
2022/12/03 00:15:34;;;;;;;4.97;2.92;;;;;;;;;;5050982;28;20494;-73
2022/12/03 00:18:00;;;;;;;3.75;2.67;;;;;;;;;;5054938;28;20568;-74
2022/12/03 00:20:26;;;;;;;3.13;2.45;;;;;;;;;;5058669;28;20505;-73
2022/12/03 00:22:52;;;;;;;4.45;3.15;;;;;;;;;;5058976;28;20274;-73
2022/12/03 00:25:18;;;;;;;3.90;2.65;;;;;;;;;;5070532;28;20118;-73
2022/12/03 00:27:44;;;;;;;3.75;2.45;;;;;;;;;;5056598;28;20484;-73
2022/12/03 00:30:11;;;;;;;4.63;3.10;;;;;;;;;;5057882;28;20082;-73
2022/12/03 00:32:37;;;;;;;5.55;2.63;;;;;;;;;;5052259;28;20032;-73
2022/12/03 00:35:03;;;;;;;3.33;2.72;;;;;;;;;;5059528;28;20020;-73
2022/12/03 00:37:29;;;;;;;3.28;2.78;;;;;;;;;;5059849;28;20070;-73
2022/12/03 00:39:56;;;;;;;4.00;3.20;;;;;;;;;;5065630;28;20103;-73
2022/12/03 00:42:22;;;;;;;4.97;2.55;;;;;;;;;;5065335;28;20032;-73
2022/12/03 00:44:48;;;;;;;5.47;2.45;;;;;;;;;;5052168;28;20028;-73
2022/12/03 00:47:14;;;;;;;2.95;2.38;;;;;;;;;;5064801;28;20039;-73
2022/12/03 00:49:40;;;;;;;3.38;2.63;;;;;;;;;;5066411;28;20040;-73
2022/12/03 00:52:06;;;;;;;3.20;2.63;;;;;;;;;;5065968;28;20029;-73
2022/12/03 00:54:33;;;;;;;4.05;2.65;;;;;;;;;;5062618;28;20043;-73
2022/12/03 00:56:59;;;;;;;3.80;2.80;;;;;;;;;;5064445;28;20488;-73
2022/12/03 00:59:25;;;;;;;5.97;2.80;;;;;;;;;;5070730;28;20020;-73
2022/12/03 01:01:51;;;;;;;3.80;2.22;;;;;;;;;;5068186;28;20393;-73
2022/12/03 01:04:17;;;;;;;3.55;2.60;;;;;;;;;;5056990;28;20805;-74
2022/12/03 01:06:43;;;;;;;9.38;2.90;;;;;;;;;;5063676;28;20499;-73
2022/12/03 01:09:10;;;;;;;3.05;2.20;;;;;;;;;;5064779;28;20464;-73
2022/12/03 01:11:36;;;;;;;2.63;2.10;;;;;;;;;;5061093;28;20253;-74
2022/12/03 01:14:02;;;;;;;2.88;2.38;;;;;;;;;;5065443;28;20755;-74
2022/12/03 01:16:28;;;;;;;3.17;2.20;;;;;;;;;;5062725;28;20648;-73
2022/12/03 01:18:54;;;;;;;4.40;2.80;;;;;;;;;;5064407;28;20074;-73
2022/12/03 01:21:21;;;;;;;5.20;2.55;;;;;;;;;;5065285;28;20582;-73
2022/12/03 01:23:47;;;;;;;2.90;2.30;;;;;;;;;;5062543;28;20040;-73
2022/12/03 01:26:13;;;;;;;5.15;2.45;;;;;;;;;;5064994;28;20521;-73
2022/12/03 01:28:40;;;;;;;3.85;2.47;;;;;;;;;;5060881;28;20017;-73
2022/12/03 01:33:52;;;;;;;4.82;2.63;;;;;;;;;;5061377;28;20044;-73
2022/12/03 01:36:18;;;;;;;4.53;2.35;;;;;;;;;;5063135;28;20029;-73
2022/12/03 01:38:44;;;;;;;7.50;2.50;;;;;;;;;;5062571;28;20033;-73
2022/12/03 01:41:10;;;;;;;3.63;2.50;;;;;;;;;;5066858;28;20070;-73
2022/12/03 01:43:37;;;;;;;3.55;2.33;;;;;;;;;;5063772;28;20051;-73
2022/12/03 01:46:03;;;;;;;5.53;2.88;;;;;;;;;;5061393;28;20032;-73
2022/12/03 01:48:32;;;;;;;3.80;2.70;;;;;;;;;;5061940;28;20503;-73
2022/12/03 01:50:58;;;;;;;7.03;2.90;;;;;;;;;;5063924;28;20045;-73
2022/12/03 01:53:24;;;;;;;3.45;2.30;;;;;;;;;;5059197;28;20385;-73
2022/12/03 01:55:51;;;;;;;3.53;2.53;;;;;;;;;;5060795;28;20485;-73
2022/12/03 01:58:20;;;;;;;5.05;1.98;;;;;;;;;;5063664;28;20310;-73
2022/12/03 02:00:47;;;;;;;2.72;1.85;;;;;;;;;;5062513;28;20033;-73
2022/12/03 02:03:17;;;;;;;4.55;2.50;;;;;;;;;;5068261;28;20028;-73
2022/12/03 02:05:43;;;;;;;2.75;2.30;;;;;;;;;;5064158;28;20590;-73
2022/12/03 02:08:28;;;;;;;4.53;1.80;;;;;;;;;;5068048;28;20466;-73
2022/12/03 02:10:54;;;;;;;4.18;2.13;;;;;;;;;;5065884;28;20095;-73
2022/12/03 02:13:20;;;;;;;2.65;1.67;;;;;;;;;;5064545;28;20080;-73
2022/12/03 02:15:46;;;;;;;4.60;1.98;;;;;;;;;;5065420;28;20524;-73
2022/12/03 02:18:13;;;;;;;2.60;1.60;;;;;;;;;;5062431;28;20039;-73
2022/12/03 02:20:51;;;;;;;3.45;1.70;;;;;;;;;;5065535;28;20013;-73
2022/12/03 02:23:24;;;;;;;3.85;1.70;;;;;;;;;;5059444;28;20459;-74
2022/12/03 02:25:50;;;;;;;3.53;1.60;;;;;;;;;;5060675;28;20013;-73
2022/12/03 02:28:16;;;;;;;6.07;1.77;;;;;;;;;;5058408;28;20028;-73
2022/12/03 02:30:43;;;;;;;3.30;1.73;;;;;;;;;;5068017;28;20020;-73
2022/12/03 02:33:09;;;;;;;2.65;1.50;;;;;;;;;;5057528;28;20040;-73
2022/12/03 02:35:36;;;;;;;5.82;2.00;;;;;;;;;;5062357;28;20031;-73
2022/12/03 02:38:08;;;;;;;4.18;1.98;;;;;;;;;;5061124;28;20036;-73
2022/12/03 02:40:34;;;;;;;8.70;1.88;;;;;;;;;;5061257;28;20021;-73
2022/12/03 02:43:01;;;;;;;4.35;1.83;;;;;;;;;;5057924;28;20041;-73
2022/12/03 02:45:29;;;;;;;1.77;1.40;;;;;;;;;;5063258;28;20231;-73
2022/12/03 02:48:10;;;;;;;3.80;1.67;;;;;;;;;;5058576;28;20037;-73
2022/12/03 02:50:38;;;;;;;2.90;1.80;;;;;;;;;;5054053;28;20041;-73
2022/12/03 02:53:06;;;;;;;5.28;1.90;;;;;;;;;;5058976;28;20115;-73
2022/12/03 02:55:33;;;;;;;7.57;1.60;;;;;;;;;;5069177;28;20059;-73
2022/12/03 02:58:00;;;;;;;2.83;1.67;;;;;;;;;;5057429;28;20051;-73
2022/12/03 03:00:26;;;;;;;5.05;1.50;;;;;;;;;;5060689;28;20020;-73
2022/12/03 03:02:52;;;;;;;5.53;1.70;;;;;;;;;;5061343;28;20047;-73
2022/12/03 03:05:21;;;;;;;5.20;1.63;;;;;;;;;;5060213;28;20176;-73
2022/12/03 03:07:48;;;;;;;3.10;1.40;;;;;;;;;;5067590;28;20488;-73
2022/12/03 03:10:15;;;;;;;4.45;1.42;;;;;;;;;;5068664;28;20027;-73
2022/12/03 03:12:42;;;;;;;4.53;1.35;;;;;;;;;;5062223;28;20032;-73
2022/12/03 03:15:09;;;;;;;6.80;1.33;;;;;;;;;;5057631;28;20094;-73
2022/12/03 03:17:35;;;;;;;3.65;1.27;;;;;;;;;;5054495;28;20499;-73
2022/12/03 03:20:02;;;;;;;3.90;1.10;;;;;;;;;;5059838;28;20040;-73
2022/12/03 03:22:35;;;;;;;7.43;1.27;;;;;;;;;;5061835;28;20469;-73
2022/12/03 03:25:02;;;;;;;4.57;1.40;;;;;;;;;;5057671;28;20032;-73
2022/12/03 03:27:29;;;;;;;8.95;1.65;;;;;;;;;;5059884;28;20074;-73
2022/12/03 03:29:56;;;;;;;3.58;1.50;;;;;;;;;;5063221;28;20024;-73
2022/12/03 03:32:22;;;;;;;7.68;1.98;;;;;;;;;;5062811;28;20073;-73
2022/12/03 03:34:48;;;;;;;3.80;1.40;;;;;;;;;;5060129;28;20082;-73
2022/12/03 03:37:14;;;;;;;7.13;1.40;;;;;;;;;;5065490;28;20064;-73
2022/12/03 03:39:40;;;;;;;6.75;1.50;;;;;;;;;;5069826;28;20507;-74
2022/12/03 03:42:08;;;;;;;3.92;1.30;;;;;;;;;;5061660;28;20359;-73
2022/12/03 03:44:34;;;;;;;5.13;1.35;;;;;;;;;;5062942;28;20032;-73
2022/12/03 03:47:01;;;;;;;5.15;1.10;;;;;;;;;;5061967;28;20182;-73
2022/12/03 03:49:27;;;;;;;2.47;0.88;;;;;;;;;;5064885;28;20052;-73
2022/12/03 03:51:53;;;;;;;4.82;1.33;;;;;;;;;;5067285;28;20476;-73
2022/12/03 03:54:19;;;;;;;4.65;1.48;;;;;;;;;;5061205;28;20036;-73
2022/12/03 03:56:45;;;;;;;5.75;1.50;;;;;;;;;;5061336;28;20493;-73
2022/12/03 03:59:12;;;;;;;9.18;1.52;;;;;;;;;;5082404;28;20744;-73
2022/12/03 04:01:39;;;;;;;6.43;1.35;;;;;;;;;;5073435;28;20107;-73
2022/12/03 04:04:08;;;;;;;3.95;1.48;;;;;;;;;;5063101;28;20480;-73
2022/12/03 04:06:34;;;;;;;5.13;1.65;;;;;;;;;;5063356;28;20078;-73
2022/12/03 04:09:00;;;;;;;5.00;1.40;;;;;;;;;;5065117;28;20038;-73
2022/12/03 04:14:11;;;;;;;4.63;1.17;;;;;;;;;;5057857;28;20079;-73
2022/12/03 04:16:37;;;;;;;5.47;1.30;;;;;;;;;;5062550;28;20028;-73
2022/12/03 04:19:03;;;;;;;4.40;1.08;;;;;;;;;;5068391;28;20032;-73
2022/12/03 04:24:15;;;;;;;5.88;1.38;;;;;;;;;;5064853;28;20051;-73
2022/12/03 04:29:26;;;;;;;4.97;1.50;;;;;;;;;;5061635;28;20744;-74
2022/12/03 04:37:22;;;;;;;3.85;1.48;;;;;;;;;;5061507;28;20118;-74
2022/12/03 04:39:48;;;;;;;5.85;1.52;;;;;;;;;;5063246;28;20047;-73
2022/12/03 04:42:14;;;;;;;4.35;1.63;;;;;;;;;;5067466;28;20048;-74
2022/12/03 04:44:41;;;;;;;5.03;1.40;;;;;;;;;;5071221;28;20032;-74
2022/12/03 04:47:09;;;;;;;4.43;1.38;;;;;;;;;;5064642;28;20095;-73
2022/12/03 04:49:37;;;;;;;10.40;1.30;;;;;;;;;;5064018;28;20123;-73
2022/12/03 04:52:03;;;;;;;12.65;1.55;;;;;;;;;;5058949;28;20051;-74
2022/12/03 04:54:29;;;;;;;5.85;2.15;;;;;;;;;;5062285;28;20032;-73
2022/12/03 04:56:55;;;;;;;10.25;1.55;;;;;;;;;;5060970;28;20130;-73
2022/12/03 04:59:22;;;;;;;5.72;1.23;;;;;;;;;;5065220;28;20032;-73
2022/12/03 05:01:48;;;;;;;7.05;1.45;;;;;;;;;;5061786;28;20086;-73
2022/12/03 05:04:14;;;;;;;5.75;1.70;;;;;;;;;;5061173;28;20511;-73
2022/12/03 05:06:40;;;;;;;7.00;1.98;;;;;;;;;;5063755;28;20078;-73
2022/12/03 05:09:07;;;;;;;6.85;1.45;;;;;;;;;;5061678;28;20129;-74
2022/12/03 05:11:33;;;;;;;6.25;1.55;;;;;;;;;;5066224;28;20107;-73
2022/12/03 05:13:59;;;;;;;6.40;1.73;;;;;;;;;;5059447;28;20033;-73
2022/12/03 05:16:25;;;;;;;8.25;1.63;;;;;;;;;;5063788;28;20032;-74
2022/12/03 05:18:52;;;;;;;5.65;1.40;;;;;;;;;;5070304;28;20644;-74
2022/12/03 05:21:18;;;;;;;7.50;1.95;;;;;;;;;;5071693;28;20455;-74
2022/12/03 05:23:44;;;;;;;6.45;1.42;;;;;;;;;;5058064;28;20040;-74
2022/12/03 05:26:10;;;;;;;6.80;1.38;;;;;;;;;;5061535;28;20032;-73
2022/12/03 05:28:37;;;;;;;4.82;1.45;;;;;;;;;;5062525;28;20025;-73
2022/12/03 05:31:03;;;;;;;8.80;1.40;;;;;;;;;;5069809;28;20561;-74
2022/12/03 05:33:30;;;;;;;4.10;1.83;;;;;;;;;;5065128;28;20032;-74
2022/12/03 05:35:56;;;;;;;7.95;1.73;;;;;;;;;;5060839;28;20029;-73
2022/12/03 05:38:22;;;;;;;5.78;1.58;;;;;;;;;;5060535;28;20325;-74
2022/12/03 05:40:48;;;;;;;5.93;1.27;;;;;;;;;;5065736;28;20413;-74
2022/12/03 05:43:15;;;;;;;4.80;1.42;;;;;;;;;;5069931;28;20503;-73
2022/12/03 05:45:42;;;;;;;9.93;1.70;;;;;;;;;;5070076;28;20032;-73
2022/12/03 05:48:11;;;;;;;4.15;1.30;;;;;;;;;;5068599;28;20063;-73
2022/12/03 05:50:38;;;;;;;3.40;1.30;;;;;;;;;;5066258;28;20075;-76
2022/12/03 05:53:04;;;;;;;7.60;1.42;;;;;;;;;;5075432;28;20030;-75
2022/12/03 05:55:30;;;;;;;8.73;1.60;;;;;;;;;;5066563;28;20135;-74
2022/12/03 05:57:57;;;;;;;7.50;1.65;;;;;;;;;;5068617;28;20032;-75
2022/12/03 06:00:24;;;;;;;5.57;1.55;;;;;;;;;;5058211;28;20031;-75
2022/12/03 06:02:50;;;;;;;9.55;2.10;;;;;;;;;;5062340;28;20138;-73
2022/12/03 06:05:18;;;;;;;8.93;1.58;;;;;;;;;;5060697;28;20496;-74
2022/12/03 06:07:44;;;;;;;10.05;1.83;;;;;;;;;;5066186;28;20198;-77
2022/12/03 06:10:12;;;;;;;6.32;1.52;;;;;;;;;;5057829;28;20518;-76
2022/12/03 06:12:38;;;;;;;9.48;2.05;;;;;;;;;;5057654;28;20435;-75
2022/12/03 06:15:05;;;;;;;9.05;1.67;;;;;;;;;;5055047;28;20472;-77
2022/12/03 06:17:31;;;;;;;6.10;1.40;;;;;;;;;;5060554;28;20035;-76
2022/12/03 06:19:57;;;;;;;10.18;1.63;;;;;;;;;;5054988;28;20060;-74
2022/12/03 06:22:23;;;;;;;9.88;2.00;;;;;;;;;;5061737;28;20048;-76
2022/12/03 06:24:49;;;;;;;10.73;2.13;;;;;;;;;;5063178;28;20653;-75
2022/12/03 06:27:15;;;;;;;10.43;1.70;;;;;;;;;;5058647;28;20025;-75
2022/12/03 06:29:42;;;;;;;8.63;1.70;;;;;;;;;;5061989;28;20110;-74
2022/12/03 06:32:08;;;;;;;8.73;1.70;;;;;;;;;;5059835;28;20036;-75
2022/12/03 06:34:34;;;;;;;10.43;2.20;;;;;;;;;;5054073;28;20074;-75
2022/12/03 06:37:00;;;;;;;16.45;2.70;;;;;;;;;;5054949;28;20048;-75
2022/12/03 06:39:26;;;;;;;9.55;2.03;;;;;;;;;;5061992;28;20027;-75
2022/12/03 06:41:52;;;;;;;12.82;2.45;;;;;;;;;;5059830;28;20021;-75
2022/12/03 06:44:19;;;;;;;12.63;1.92;;;;;;;;;;5061913;28;20032;-76
2022/12/03 06:46:45;;;;;;;12.20;2.65;;;;;;;;;;5047903;28;20060;-75
2022/12/03 06:49:11;;;;;;;9.32;2.28;;;;;;;;;;5056243;28;20595;-75
2022/12/03 06:51:37;;;;;;;15.25;2.28;;;;;;;;;;5055945;28;20128;-75
2022/12/03 06:54:04;;;;;;;9.65;2.20;;;;;;;;;;5055122;28;20021;-76
2022/12/03 06:56:30;;;;;;;8.88;2.10;;;;;;;;;;5061716;28;20031;-75
2022/12/03 06:58:56;;;;;;;12.15;2.47;;;;;;;;;;5059489;28;20043;-75
2022/12/03 07:01:23;;;;;;;9.48;1.95;;;;;;;;;;5061991;28;20021;-75
2022/12/03 07:03:49;;;;;;;9.35;2.33;;;;;;;;;;5060783;28;20033;-76
2022/12/03 07:06:15;;;;;;;9.77;2.08;;;;;;;;;;5058198;28;20023;-75
2022/12/03 07:08:41;;;;;;;12.02;2.47;;;;;;;;;;5058968;28;20029;-75
2022/12/03 07:11:29;;;;;;;11.65;2.55;;;;;;;;;;5057213;28;20154;-75
2022/12/03 07:13:54;;;;;;;15.00;2.33;;;;;;;;;;5060863;28;20036;-75
2022/12/03 07:16:20;;;;;;;14.60;2.63;;;;;;;;;;5064202;28;20017;-74
2022/12/03 07:18:46;;;;;;;6.93;1.95;;;;;;;;;;5059430;28;20035;-76
2022/12/03 07:21:12;;;;;;;13.18;2.80;;;;;;;;;;5057046;28;20091;-73
2022/12/03 07:23:38;;;;;;;9.57;2.10;;;;;;;;;;5058227;28;20047;-74
2022/12/03 07:26:04;;;;;;;13.05;3.10;;;;;;;;;;5076212;28;20032;-75
2022/12/03 07:28:31;;;;;;;14.05;2.58;;;;;;;;;;5067526;28;20517;-76
2022/12/03 07:30:57;;;;;;;12.30;3.08;;;;;;;;;;5061248;28;20020;-75
2022/12/03 07:33:23;;;;;;;15.80;3.45;;;;;;;;;;5060660;28;20028;-72
2022/12/03 07:35:49;;;;;;;14.90;2.95;;;;;;;;;;5082380;28;20033;-76
2022/12/03 07:38:15;;;;;;;13.00;2.92;;;;;;;;;;5064032;28;20021;-76
2022/12/03 07:40:41;;;;;;;12.20;2.63;;;;;;;;;;5065947;28;20016;-75
2022/12/03 07:43:07;;;;;;;8.18;2.05;;;;;;;;;;5063330;28;20029;-75
2022/12/03 07:45:33;;;;;;;12.52;3.38;;;;;;;;;;5066651;28;20165;-75
2022/12/03 07:48:00;;;;;;;10.23;2.92;;;;;;;;;;5062689;28;20025;-73
2022/12/03 07:50:27;;;;;;;10.18;2.35;;;;;;;;;;5069456;28;20040;-75
2022/12/03 07:52:53;;;;;;;13.68;3.40;;;;;;;;;;5069445;28;20020;-75
2022/12/03 07:55:20;;;;;;;16.30;3.50;;;;;;;;;;5067679;28;20153;-75
2022/12/03 07:57:46;;;;;;;15.98;2.58;;;;;;;;;;5067652;28;20487;-74
2022/12/03 08:00:13;;;;;;;14.13;3.05;;;;;;;;;;5075628;28;20393;-76
2022/12/03 08:02:39;;;;;;;14.05;2.55;;;;;;;;;;5065696;28;20033;-74
2022/12/03 08:05:06;;;;;;;22.55;3.45;;;;;;;;;;5064526;28;20021;-76
2022/12/03 08:07:32;;;;;;;14.35;3.03;;;;;;;;;;5060445;28;20028;-75
2022/12/03 08:09:58;;;;;;;14.68;3.30;;;;;;;;;;5063556;28;20012;-76
2022/12/03 08:12:41;;;;;;;14.95;2.80;;;;;;;;;;5065711;28;20471;-75
2022/12/03 08:15:11;;;;;;;16.38;2.38;;;;;;;;;;5061675;28;20029;-76
2022/12/03 08:17:41;;;;;;;19.35;4.22;;;;;;;;;;5063428;28;20086;-75
2022/12/03 08:20:18;;;;;;;17.02;3.08;;;;;;;;;;5056473;28;20029;-75
2022/12/03 08:22:45;;;;;;;16.20;3.17;;;;;;;;;;5063928;28;20043;-76
2022/12/03 08:25:19;;;;;;;10.82;2.70;;;;;;;;;;5062840;28;20017;-73
2022/12/03 08:27:45;;;;;;;15.73;2.78;;;;;;;;;;5065937;28;20051;-75
2022/12/03 08:30:13;;;;;;;12.00;3.13;;;;;;;;;;5062104;28;20021;-76
2022/12/03 08:32:39;;;;;;;12.95;3.35;;;;;;;;;;5065328;28;20535;-77
2022/12/03 08:35:16;;;;;;;12.13;2.50;;;;;;;;;;5064248;28;20040;-76
2022/12/03 08:37:42;;;;;;;11.65;3.58;;;;;;;;;;5063042;28;20054;-75
2022/12/03 08:40:20;;;;;;;15.38;3.10;;;;;;;;;;5070804;28;20044;-77
2022/12/03 08:42:46;;;;;;;14.23;3.70;;;;;;;;;;5066796;28;20064;-77
2022/12/03 08:45:21;;;;;;;17.52;3.38;;;;;;;;;;5061267;28;20024;-73
2022/12/03 08:47:47;;;;;;;11.23;3.60;;;;;;;;;;5076346;28;20373;-74
2022/12/03 08:50:24;;;;;;;15.32;4.07;;;;;;;;;;5066122;28;20493;-75
2022/12/03 08:52:52;;;;;;;12.73;3.10;;;;;;;;;;5070575;28;20039;-75
2022/12/03 08:55:35;;;;;;;11.90;3.60;;;;;;;;;;5064807;28;20020;-76
2022/12/03 08:58:05;;;;;;;9.88;3.28;;;;;;;;;;5061854;28;20035;-76
2022/12/03 09:00:31;;;;;;;11.30;3.30;;;;;;;;;;5060782;28;20033;-73
2022/12/03 09:02:59;;;;;;;9.48;2.50;;;;;;;;;;5064538;28;20028;-76
2022/12/03 09:05:27;;;;;;;11.70;2.70;;;;;;;;;;5063280;28;20041;-75
2022/12/03 09:07:53;;;;;;;10.80;2.50;;;;;;;;;;5060497;28;20028;-75
2022/12/03 09:10:20;;;;;;;13.02;2.67;;;;;;;;;;5066662;28;20573;-76
2022/12/03 09:12:46;;;;;;;14.65;3.28;;;;;;;;;;5061532;28;20032;-76
2022/12/03 09:15:12;;;;;;;7.28;2.33;;;;;;;;;;5069552;28;20016;-75
2022/12/03 09:17:38;;;;;;;14.23;2.63;;;;;;;;;;5063209;28;20029;-76
2022/12/03 09:20:05;;;;;;;13.75;2.72;;;;;;;;;;5064185;28;20480;-77
2022/12/03 09:22:31;;;;;;;10.25;2.75;;;;;;;;;;5057453;28;20033;-76
2022/12/03 09:24:58;;;;;;;14.70;3.22;;;;;;;;;;5066612;28;20027;-76
2022/12/03 09:27:24;;;;;;;13.52;2.55;;;;;;;;;;5066992;28;20638;-76
2022/12/03 09:29:50;;;;;;;19.15;3.13;;;;;;;;;;5068283;28;20032;-76
2022/12/03 09:32:16;;;;;;;11.15;2.80;;;;;;;;;;5068507;28;20230;-76
2022/12/03 09:34:43;;;;;;;10.75;2.83;;;;;;;;;;5068641;28;20032;-76
2022/12/03 09:37:09;;;;;;;18.35;2.85;;;;;;;;;;5067281;28;20051;-77
2022/12/03 09:39:35;;;;;;;7.40;2.22;;;;;;;;;;5069199;28;20304;-77
2022/12/03 09:42:02;;;;;;;11.40;2.53;;;;;;;;;;5068687;28;20500;-77
2022/12/03 09:44:29;;;;;;;12.65;2.90;;;;;;;;;;5067470;28;20036;-76
2022/12/03 09:46:58;;;;;;;19.35;2.75;;;;;;;;;;5068662;28;20027;-77
2022/12/03 09:49:26;;;;;;;11.40;2.60;;;;;;;;;;5056748;28;20139;-76
2022/12/03 09:51:53;;;;;;;15.80;2.83;;;;;;;;;;5068706;28;20021;-75
2022/12/03 09:54:22;;;;;;;14.57;3.33;;;;;;;;;;5067514;28;20031;-77
2022/12/03 09:56:48;;;;;;;15.68;2.97;;;;;;;;;;5068130;28;20021;-76
2022/12/03 09:59:15;;;;;;;11.00;2.67;;;;;;;;;;5067247;28;20027;-76
2022/12/03 10:01:42;;;;;;;12.10;2.63;;;;;;;;;;5068537;28;20021;-77
2022/12/03 10:04:08;;;;;;;13.73;3.22;;;;;;;;;;5068338;28;20029;-76
2022/12/03 10:06:34;;;;;;;15.55;2.42;;;;;;;;;;5068650;28;20028;-76
2022/12/03 10:09:01;;;;;;;12.63;2.75;;;;;;;;;;5068475;28;20028;-77
2022/12/03 10:11:28;;;;;;;11.02;2.17;;;;;;;;;;5066818;28;20146;-76
2022/12/03 10:13:55;;;;;;;10.50;2.70;;;;;;;;;;5068259;28;20020;-76
2022/12/03 10:16:22;;;;;;;14.77;2.55;;;;;;;;;;5068124;28;20473;-77
2022/12/03 10:18:53;;;;;;;13.20;2.72;;;;;;;;;;5068316;28;20032;-75
2022/12/03 10:21:26;;;;;;;11.15;2.85;;;;;;;;;;5068133;28;20671;-75
2022/12/03 10:24:11;;;;;;;13.13;2.60;;;;;;;;;;5066691;28;20094;-77
2022/12/03 10:26:39;;;;;;;12.60;3.33;;;;;;;;;;5067764;28;20036;-76
2022/12/03 10:29:11;;;;;;;13.80;2.70;;;;;;;;;;5068164;28;20376;-75
2022/12/03 10:31:38;;;;;;;14.88;2.60;;;;;;;;;;5066132;28;20115;-76
2022/12/03 10:34:04;;;;;;;19.55;3.63;;;;;;;;;;5064936;28;20051;-74
2022/12/03 10:36:30;;;;;;;16.75;2.95;;;;;;;;;;5066733;28;20028;-77
2022/12/03 10:39:08;;;;;;;17.85;2.53;;;;;;;;;;5066246;28;20423;-76
2022/12/03 10:41:34;;;;;;;11.20;2.45;;;;;;;;;;5063650;28;20618;-77
2022/12/03 10:44:09;;;;;;;5.15;1.92;;;;;;;;;;5066689;28;20076;-77
2022/12/03 10:46:36;;;;;;;15.85;3.60;;;;;;;;;;5067098;28;20118;-78
2022/12/03 10:49:14;;;;;;;12.88;2.35;;;;;;;;;;5066710;28;20157;-78
2022/12/03 10:51:40;;;;;;;9.88;2.47;;;;;;;;;;5066788;28;20052;-79
2022/12/03 10:54:14;;;;;;;16.23;2.95;;;;;;;;;;5062107;28;20070;-74
2022/12/03 10:56:40;;;;;;;18.50;2.90;;;;;;;;;;5066011;28;20028;-77
2022/12/03 10:59:30;;;;;;;12.88;3.38;;;;;;;;;;5054654;28;20494;-76
2022/12/03 11:01:56;;;;;;;;;;;;;;;;;;5066225;28;20110;-76
2022/12/03 11:04:34;;;;;;;12.75;2.50;;;;;;;;;;5065697;28;19964;-74
2022/12/03 11:07:11;;;;;;;13.50;2.63;;;;;;;;;;5065685;28;20025;-77
2022/12/03 11:09:37;;;;;;;9.05;2.45;;;;;;;;;;5064409;28;20017;-77
2022/12/03 11:12:04;;;;;;;17.80;2.75;;;;;;;;;;5065734;28;20021;-77
2022/12/03 11:14:52;;;;;;;13.20;2.50;;;;;;;;;;5065545;28;20449;-76
2022/12/03 11:17:25;;;;;;;13.18;2.45;;;;;;;;;;5065599;28;20028;-77
2022/12/03 11:19:51;;;;;;;12.57;2.50;;;;;;;;;;5064244;28;20020;-75
2022/12/03 11:22:20;;;;;;;10.82;2.90;;;;;;;;;;5066035;28;20016;-77
2022/12/03 11:25:00;;;;;;;15.60;2.85;;;;;;;;;;5067340;28;20428;-77
2022/12/03 11:27:26;;;;;;;13.32;3.15;;;;;;;;;;5066984;28;20483;-77
2022/12/03 11:29:53;;;;;;;9.35;2.90;;;;;;;;;;5067558;28;20438;-78
2022/12/03 11:32:37;;;;;;;7.95;2.67;;;;;;;;;;5065685;28;20472;-77
2022/12/03 11:35:22;;;;;;;13.95;3.00;;;;;;;;;;5067226;28;20033;-77
2022/12/03 11:37:48;;;;;;;15.02;2.80;;;;;;;;;;5067109;28;20027;-74
2022/12/03 11:40:17;;;;;;;13.60;3.38;;;;;;;;;;5067612;28;20070;-77
2022/12/03 11:42:44;;;;;;;9.60;2.70;;;;;;;;;;5057532;28;20036;-76
2022/12/03 11:45:10;;;;;;;12.00;2.60;;;;;;;;;;5060318;28;20039;-77
2022/12/03 11:47:36;;;;;;;20.15;3.35;;;;;;;;;;5061132;28;20029;-77
2022/12/03 11:50:15;;;;;;;10.90;2.92;;;;;;;;;;5059113;28;20451;-76
2022/12/03 11:52:43;;;;;;;17.70;2.63;;;;;;;;;;5057410;28;20527;-78
2022/12/03 11:55:15;;;;;;;9.93;3.45;;;;;;;;;;5059466;28;20039;-77
2022/12/03 11:57:42;;;;;;;16.55;3.78;;;;;;;;;;5060802;28;20534;-78
2022/12/03 12:00:21;;;;;;;13.13;4.15;;;;;;;;;;5060789;28;20032;-76
2022/12/03 12:02:48;;;;;;;15.75;3.58;;;;;;;;;;5057204;28;20032;-77
2022/12/03 12:05:28;;;;;;;18.60;3.33;;;;;;;;;;5065836;28;20034;-76
2022/12/03 12:07:55;;;;;;;14.05;3.97;;;;;;;;;;5057291;28;20025;-77
2022/12/03 12:10:40;;;;;;;20.40;2.90;;;;;;;;;;5062527;28;20028;-75
2022/12/03 12:13:06;;;;;;;14.90;2.95;;;;;;;;;;5060576;28;20037;-77
2022/12/03 12:15:33;;;;;;;13.13;3.28;;;;;;;;;;5060860;28;20055;-77
2022/12/03 12:18:18;;;;;;;13.95;2.97;;;;;;;;;;5058096;28;20025;-76
2022/12/03 12:20:44;;;;;;;13.18;2.95;;;;;;;;;;5062898;28;20028;-76
2022/12/03 12:23:27;;;;;;;12.57;2.75;;;;;;;;;;5066602;28;20062;-77
2022/12/03 12:26:05;;;;;;;14.23;3.28;;;;;;;;;;5057874;28;20045;-76
2022/12/03 12:28:31;;;;;;;12.65;2.85;;;;;;;;;;5062400;28;20021;-76
2022/12/03 12:30:57;;;;;;;10.07;2.78;;;;;;;;;;5063421;28;20031;-74
2022/12/03 12:33:25;;;;;;;15.18;3.75;;;;;;;;;;5064619;28;20063;-76
2022/12/03 12:35:51;;;;;;;8.98;2.55;;;;;;;;;;5063567;28;20039;-78
2022/12/03 12:38:19;;;;;;;15.38;3.47;;;;;;;;;;5063518;28;20053;-77
2022/12/03 12:40:49;;;;;;;11.80;2.47;;;;;;;;;;5066372;28;20031;-77
2022/12/03 12:43:22;;;;;;;17.30;3.00;;;;;;;;;;5062156;28;20032;-77
2022/12/03 12:45:48;;;;;;;11.80;3.17;;;;;;;;;;5068398;28;20081;-78
2022/12/03 12:48:14;;;;;;;12.20;3.03;;;;;;;;;;5059490;28;20121;-77
2022/12/03 12:50:41;;;;;;;16.95;3.30;;;;;;;;;;5060389;28;20144;-77
2022/12/03 12:53:11;;;;;;;9.90;2.33;;;;;;;;;;5060926;28;20013;-77
2022/12/03 12:55:40;;;;;;;6.88;2.60;;;;;;;;;;5060811;28;20032;-77
2022/12/03 12:58:17;;;;;;;9.75;2.60;;;;;;;;;;5061313;28;20056;-77
2022/12/03 13:00:47;;;;;;;9.40;3.05;;;;;;;;;;5067998;28;20055;-77
2022/12/03 13:03:14;;;;;;;17.02;3.38;;;;;;;;;;5066319;28;20068;-77
2022/12/03 13:05:42;;;;;;;10.93;2.70;;;;;;;;;;5065802;28;20091;-77
2022/12/03 13:08:21;;;;;;;11.57;2.70;;;;;;;;;;5054916;28;20220;-76
2022/12/03 13:10:48;;;;;;;8.35;3.20;;;;;;;;;;5065850;28;20021;-77
2022/12/03 13:13:17;;;;;;;14.55;3.22;;;;;;;;;;5063330;28;20473;-77
2022/12/03 13:15:50;;;;;;;11.45;3.67;;;;;;;;;;5065415;28;20111;-78
2022/12/03 13:18:24;;;;;;;10.95;3.47;;;;;;;;;;5058352;28;20792;-75
2022/12/03 13:20:50;;;;;;;14.15;3.10;;;;;;;;;;5061591;28;20024;-75
2022/12/03 13:23:34;;;;;;;7.25;2.75;;;;;;;;;;5064230;28;20029;-75
2022/12/03 13:26:04;;;;;;;13.65;3.25;;;;;;;;;;5062722;28;20025;-75
2022/12/03 13:28:30;;;;;;;11.73;3.08;;;;;;;;;;5062729;28;20671;-75
2022/12/03 13:31:01;;;;;;;14.93;4.32;;;;;;;;;;5065936;28;20031;-74
2022/12/03 13:33:27;;;;;;;10.98;3.10;;;;;;;;;;5061739;28;20020;-75
2022/12/03 13:35:54;;;;;;;10.13;3.72;;;;;;;;;;5063462;28;20016;-75
2022/12/03 13:38:22;;;;;;;15.65;4.65;;;;;;;;;;5066264;28;20021;-77
2022/12/03 13:40:59;;;;;;;14.80;3.47;;;;;;;;;;5060354;28;20021;-75
2022/12/03 13:43:28;;;;;;;18.27;3.70;;;;;;;;;;5058083;28;20090;-77
2022/12/03 13:45:54;;;;;;;14.90;3.70;;;;;;;;;;5061977;28;20012;-77
2022/12/03 13:48:23;;;;;;;13.85;2.83;;;;;;;;;;5056163;28;20024;-77
2022/12/03 13:50:50;;;;;;;16.25;3.72;;;;;;;;;;5062927;28;20902;-76
2022/12/03 13:53:21;;;;;;;15.75;3.30;;;;;;;;;;5054159;28;20087;-74
2022/12/03 13:55:48;;;;;;;13.70;4.03;;;;;;;;;;5062081;28;20035;-73
2022/12/03 13:58:14;;;;;;;13.02;3.40;;;;;;;;;;5060018;28;20055;-73
2022/12/03 14:00:41;;;;;;;16.63;3.33;;;;;;;;;;5060856;28;20471;-76
2022/12/03 14:03:07;;;;;;;14.25;3.22;;;;;;;;;;5057527;28;20036;-76
2022/12/03 14:05:33;;;;;;;13.75;4.18;;;;;;;;;;5059757;28;20361;-74
2022/12/03 14:08:03;;;;;;;14.77;2.97;;;;;;;;;;5061257;28;20405;-76
2022/12/03 14:10:30;;;;;;;9.45;3.35;;;;;;;;;;5058242;28;20111;-73
2022/12/03 14:12:56;;;;;;;13.85;3.42;;;;;;;;;;5058949;28;20035;-77
2022/12/03 14:15:23;;;;;;;10.23;3.17;;;;;;;;;;5063950;28;20108;-74
2022/12/03 14:17:49;;;;;;;25.52;3.95;;;;;;;;;;5071152;28;20021;-75
2022/12/03 14:20:16;;;;;;;16.92;3.28;;;;;;;;;;5059442;28;20016;-76
2022/12/03 14:22:42;;;;;;;12.13;4.18;;;;;;;;;;5060972;28;20591;-77
2022/12/03 14:25:09;;;;;;;11.77;3.72;;;;;;;;;;5057804;28;20021;-77
2022/12/03 14:27:35;;;;;;;12.80;3.90;;;;;;;;;;5054023;28;20020;-74
2022/12/03 14:30:02;;;;;;;21.38;4.60;;;;;;;;;;5058038;28;20043;-76
2022/12/03 14:32:28;;;;;;;11.75;3.25;;;;;;;;;;5055233;28;20013;-76
2022/12/03 14:34:54;;;;;;;12.05;3.70;;;;;;;;;;5057482;28;20020;-76
2022/12/03 14:37:20;;;;;;;16.60;4.30;;;;;;;;;;5061356;28;20044;-74
2022/12/03 14:39:47;;;;;;;12.85;3.80;;;;;;;;;;5063607;28;20036;-76
2022/12/03 14:42:13;;;;;;;12.98;3.42;;;;;;;;;;5050916;28;20025;-77
2022/12/03 14:44:39;;;;;;;14.75;3.88;;;;;;;;;;5061063;28;20033;-73
2022/12/03 14:47:06;;;;;;;12.95;3.60;;;;;;;;;;5061945;28;20016;-77
2022/12/03 14:49:32;;;;;;;18.33;4.03;;;;;;;;;;5054164;28;20045;-77
2022/12/03 14:51:58;;;;;;;10.30;3.83;;;;;;;;;;5058779;28;20025;-77
2022/12/03 14:54:24;;;;;;;12.98;3.65;;;;;;;;;;5053356;28;20021;-76
2022/12/03 14:56:51;;;;;;;18.00;3.83;;;;;;;;;;5054053;28;20017;-73